Time;durP1;ratioP1;P1;durP2;ratioP2;P2;SDS_P1;SDS_P2;PMS_P1;PMS_P2;Temp;Humidity;BMP_temperature;BMP_pressure;BME280_temperature;BME280_humidity;BME280_pressure;Samples;Min_cycle;Max_cycle;Signal;HPM_P1;HPM_P2
2022/05/24 02:26:41;;;;;;;3.00;1.27;;;18.20;99.90;;;;;;1361463;23;20761;-86
2022/05/24 02:29:09;;;;;;;2.80;1.27;;;18.10;99.90;;;;;;4966703;28;20465;-88
2022/05/24 02:31:36;;;;;;;3.77;1.73;;;18.00;99.90;;;;;;4958037;28;20579;-88
2022/05/24 02:34:03;;;;;;;3.00;1.40;;;17.90;99.90;;;;;;4958222;28;20820;-88
2022/05/24 02:36:30;;;;;;;4.53;1.77;;;17.90;99.90;;;;;;4958562;28;20547;-88
2022/05/24 02:38:57;;;;;;;3.10;1.27;;;17.90;99.90;;;;;;4959454;28;20491;-88
2022/05/24 02:41:29;;;;;;;3.07;1.20;;;17.80;99.90;;;;;;4958881;28;20528;-88
2022/05/24 02:43:58;;;;;;;3.23;1.30;;;17.80;99.90;;;;;;4958724;28;20521;-88
2022/05/24 02:46:26;;;;;;;3.40;1.30;;;17.70;99.90;;;;;;4958484;28;20463;-87
2022/05/24 02:48:53;;;;;;;3.23;1.50;;;17.70;99.90;;;;;;4958187;28;21027;-88
2022/05/24 02:51:20;;;;;;;3.10;1.20;;;17.70;99.90;;;;;;4957898;28;20869;-88
2022/05/24 02:53:47;;;;;;;3.20;1.30;;;17.80;99.90;;;;;;4959067;28;20537;-88
2022/05/24 02:56:15;;;;;;;3.27;1.47;;;17.70;99.90;;;;;;4969160;28;20433;-85
2022/05/24 02:58:43;;;;;;;2.90;1.40;;;17.80;99.90;;;;;;4979074;28;20464;-85
2022/05/24 03:01:19;;;;;;;3.47;1.50;;;17.70;99.90;;;;;;4979138;28;20437;-86
2022/05/24 03:03:47;;;;;;;6.43;1.50;;;17.90;99.90;;;;;;4978096;28;20404;-87
2022/05/24 03:06:14;;;;;;;3.80;1.47;;;18.00;99.90;;;;;;4968806;28;20464;-88
2022/05/24 03:11:25;;;;;;;3.73;1.37;;;17.90;99.90;;;;;;4963622;29;20463;-88
2022/05/24 03:16:38;;;;;;;5.53;1.60;;;18.10;99.90;;;;;;4970829;28;20500;-88
2022/05/24 03:19:06;;;;;;;3.07;1.47;;;18.00;99.90;;;;;;4967819;28;20829;-89
2022/05/24 03:21:32;;;;;;;3.90;1.30;;;17.90;99.90;;;;;;4958108;28;20842;-88
2022/05/24 03:23:59;;;;;;;2.90;1.30;;;17.90;99.90;;;;;;4957106;28;20453;-88
2022/05/24 03:26:27;;;;;;;3.40;1.70;;;17.90;99.90;;;;;;4956432;28;20540;-88
2022/05/24 03:28:54;;;;;;;5.27;1.57;;;17.90;99.90;;;;;;4956473;28;20460;-90
2022/05/24 03:31:21;;;;;;;4.60;1.70;;;17.80;99.90;;;;;;4956793;28;20588;-89
2022/05/24 03:33:50;;;;;;;2.70;1.20;;;17.80;99.90;;;;;;4959684;28;20829;-88
2022/05/24 03:36:19;;;;;;;4.33;1.37;;;17.80;99.90;;;;;;4962975;28;20427;-88
2022/05/24 03:38:46;;;;;;;3.17;1.40;;;17.80;99.90;;;;;;4964294;28;20457;-89
2022/05/24 03:41:13;;;;;;;3.70;1.70;;;17.80;99.90;;;;;;4960812;28;20568;-89
2022/05/24 03:43:40;;;;;;;5.17;1.27;;;17.80;99.90;;;;;;4957128;28;20453;-89
2022/05/24 03:46:08;;;;;;;3.40;1.30;;;17.80;99.90;;;;;;4955439;28;20449;-89
2022/05/24 03:48:36;;;;;;;3.20;1.43;;;17.80;99.90;;;;;;4972563;28;20512;-88
2022/05/24 03:51:05;;;;;;;5.33;3.37;;;17.80;99.90;;;;;;4959954;28;20543;-89
2022/05/24 03:53:35;;;;;;;4.80;1.60;;;17.70;99.90;;;;;;4956506;28;20457;-89
2022/05/24 03:56:02;;;;;;;3.70;1.73;;;17.70;99.90;;;;;;4957438;28;20454;-89
2022/05/24 03:58:29;;;;;;;4.20;1.77;;;17.70;99.90;;;;;;4956211;28;20528;-89
2022/05/24 04:00:57;;;;;;;3.33;1.60;;;17.70;99.90;;;;;;4956180;28;20488;-89
2022/05/24 04:03:24;;;;;;;8.17;2.47;;;17.70;99.90;;;;;;4956366;28;20463;-89
2022/05/24 04:05:51;;;;;;;4.83;1.50;;;17.80;99.90;;;;;;4958594;28;20445;-89
2022/05/24 04:08:24;;;;;;;4.27;1.50;;;17.90;99.90;;;;;;4957229;28;20471;-89
2022/05/24 04:10:51;;;;;;;3.30;1.60;;;17.90;99.90;;;;;;4956732;28;20438;-89
2022/05/24 04:13:18;;;;;;;4.47;2.20;;;17.90;99.90;;;;;;4956024;28;20861;-90
2022/05/24 04:15:45;;;;;;;5.00;1.43;;;17.90;99.90;;;;;;4956197;28;20520;-88
2022/05/24 04:18:14;;;;;;;4.00;1.60;;;18.00;99.90;;;;;;4957660;28;20564;-88
2022/05/24 04:20:41;;;;;;;5.07;2.10;;;18.10;99.90;;;;;;4960604;28;20457;-87
2022/05/24 04:23:14;;;;;;;3.87;1.70;;;18.00;99.90;;;;;;4963975;28;20452;-88
2022/05/24 04:25:42;;;;;;;3.53;1.63;;;17.90;99.90;;;;;;4964748;28;20457;-87
2022/05/24 04:28:09;;;;;;;4.60;1.57;;;17.90;99.90;;;;;;4967173;28;20481;-87
2022/05/24 04:30:36;;;;;;;4.00;1.53;;;17.90;99.90;;;;;;4966955;28;20484;-88
2022/05/24 04:33:03;;;;;;;4.10;2.13;;;18.00;99.90;;;;;;4956802;28;20505;-88
2022/05/24 04:35:30;;;;;;;4.90;1.67;;;18.00;99.90;;;;;;4971625;28;20704;-85
2022/05/24 04:37:56;;;;;;;4.10;1.77;;;17.90;99.90;;;;;;4978096;28;20504;-85
2022/05/24 04:42:18;;;;;;;4.03;2.00;;;18.00;99.90;;;;;;4969366;28;20463;-88
2022/05/24 04:43:11;;;;;;;4.23;1.70;;;17.90;99.90;;;;;;4962063;28;20467;-88
2022/05/24 04:45:38;;;;;;;3.50;1.40;;;18.00;99.90;;;;;;4960042;28;20445;-88
2022/05/24 04:48:06;;;;;;;3.80;1.50;;;18.00;99.90;;;;;;4957377;28;20624;-89
2022/05/24 04:50:34;;;;;;;3.10;1.40;;;18.10;99.90;;;;;;4959335;28;20465;-87
2022/05/24 04:53:02;;;;;;;6.40;2.23;;;18.10;99.90;;;;;;4955668;28;20505;-89
2022/05/24 04:55:29;;;;;;;3.10;1.50;;;18.10;99.90;;;;;;4960947;28;20453;-89
2022/05/24 04:57:56;;;;;;;5.30;2.00;;;18.20;99.90;;;;;;4958628;28;21006;-88
2022/05/24 05:00:25;;;;;;;4.37;1.80;;;18.30;99.90;;;;;;4975166;28;20534;-89
2022/05/24 05:02:52;;;;;;;4.43;1.87;;;18.40;99.90;;;;;;4978157;28;20493;-88
2022/05/24 05:05:19;;;;;;;4.33;1.60;;;18.40;99.90;;;;;;4966168;28;20516;-88
2022/05/24 05:07:46;;;;;;;6.43;1.97;;;18.40;99.90;;;;;;4960594;28;20508;-88
2022/05/24 05:10:14;;;;;;;4.83;1.67;;;18.50;99.90;;;;;;4971956;28;20512;-88
2022/05/24 05:12:41;;;;;;;6.60;2.07;;;18.50;99.90;;;;;;4980656;28;20587;-88
2022/05/24 05:15:08;;;;;;;5.53;1.50;;;18.50;99.90;;;;;;4973128;28;20480;-89
2022/05/24 05:17:37;;;;;;;3.80;1.80;;;18.50;99.90;;;;;;4974049;28;20469;-88
2022/05/24 05:20:05;;;;;;;4.03;1.80;;;18.50;99.90;;;;;;4964080;28;21034;-88
2022/05/24 05:22:32;;;;;;;4.10;1.70;;;18.50;99.90;;;;;;4963109;28;21015;-88
2022/05/24 05:24:58;;;;;;;3.97;2.03;;;18.40;99.90;;;;;;4959079;28;20456;-87
2022/05/24 05:27:25;;;;;;;5.13;2.00;;;18.40;99.90;;;;;;4960556;28;20484;-88
2022/05/24 05:32:38;;;;;;;3.80;1.73;;;18.50;99.90;;;;;;4960070;29;20472;-87
2022/05/24 05:35:07;;;;;;;4.43;1.90;;;18.60;99.90;;;;;;4958476;28;20546;-87
2022/05/24 05:37:34;;;;;;;3.70;1.70;;;18.70;99.90;;;;;;4958153;28;20477;-86
2022/05/24 05:40:03;;;;;;;4.40;2.00;;;18.90;99.90;;;;;;4958241;28;20920;-86
2022/05/24 05:42:30;;;;;;;5.00;2.27;;;19.00;99.90;;;;;;4958357;28;20983;-87
2022/05/24 05:44:57;;;;;;;3.80;1.90;;;19.00;99.90;;;;;;4957864;28;20888;-87
2022/05/24 05:47:24;;;;;;;5.47;2.23;;;19.10;99.90;;;;;;4960711;28;20856;-86
2022/05/24 05:49:52;;;;;;;6.90;2.60;;;19.20;99.90;;;;;;4960554;28;20583;-85
2022/05/24 05:52:19;;;;;;;5.00;1.90;;;19.10;99.90;;;;;;4960973;28;20493;-86
2022/05/24 05:54:46;;;;;;;3.43;1.43;;;19.20;99.90;;;;;;4960488;28;20547;-85
2022/05/24 05:57:13;;;;;;;5.30;1.90;;;19.30;99.90;;;;;;4963286;28;20497;-85
2022/05/24 05:59:40;;;;;;;5.53;2.23;;;19.30;99.90;;;;;;4960393;28;20535;-87
2022/05/24 06:02:09;;;;;;;3.60;1.93;;;19.30;99.90;;;;;;4959964;28;20454;-87
2022/05/24 06:04:37;;;;;;;5.17;1.87;;;19.40;99.90;;;;;;4960317;28;20505;-87
2022/05/24 06:07:05;;;;;;;4.27;1.80;;;19.40;99.90;;;;;;4961566;28;20479;-86
2022/05/24 06:09:32;;;;;;;3.70;1.90;;;19.40;99.90;;;;;;4971257;28;20512;-88
2022/05/24 06:12:00;;;;;;;5.80;1.97;;;19.50;99.90;;;;;;4959484;28;20488;-86
2022/05/24 06:14:27;;;;;;;3.70;1.60;;;19.60;99.90;;;;;;4960137;28;20445;-86
2022/05/24 06:16:54;;;;;;;6.20;3.07;;;19.70;99.90;;;;;;4964741;28;20547;-86
2022/05/24 06:19:21;;;;;;;4.80;1.67;;;19.70;99.90;;;;;;4964750;28;20537;-86
2022/05/24 06:21:48;;;;;;;3.77;1.80;;;19.80;99.90;;;;;;4967443;28;20481;-85
2022/05/24 06:24:16;;;;;;;4.77;1.50;;;19.90;99.90;;;;;;4964412;28;20877;-86
2022/05/24 06:26:43;;;;;;;3.83;1.60;;;19.80;99.90;;;;;;4958625;28;20495;-86
2022/05/24 06:29:10;;;;;;;3.40;1.90;;;19.80;99.90;;;;;;4958775;28;20438;-87
2022/05/24 06:31:36;;;;;;;5.87;1.80;;;19.90;99.90;;;;;;4957910;28;20952;-87
2022/05/24 06:34:03;;;;;;;4.37;1.80;;;20.00;99.90;;;;;;4958913;28;20464;-87
2022/05/24 06:36:30;;;;;;;4.47;1.90;;;20.00;99.90;;;;;;4958443;28;20488;-87
2022/05/24 06:38:57;;;;;;;6.57;2.00;;;20.00;99.90;;;;;;4958416;28;20445;-87
2022/05/24 06:41:25;;;;;;;3.70;1.50;;;20.00;99.90;;;;;;4957634;28;20967;-87
2022/05/24 06:43:52;;;;;;;5.70;1.70;;;20.00;99.90;;;;;;4956836;28;20503;-87
2022/05/24 06:46:19;;;;;;;5.93;2.10;;;20.00;99.90;;;;;;4971063;28;20493;-86
2022/05/24 06:48:50;;;;;;;5.63;2.07;;;20.00;99.90;;;;;;4961950;28;20508;-87
2022/05/24 06:51:19;;;;;;;4.47;1.80;;;20.00;99.90;;;;;;4961812;28;20492;-87
2022/05/24 06:53:48;;;;;;;4.57;1.90;;;20.10;99.90;;;;;;4978473;28;20801;-84
2022/05/24 06:56:16;;;;;;;3.73;1.50;;;20.00;99.90;;;;;;4978326;28;20461;-86
2022/05/24 06:58:44;;;;;;;5.20;1.70;;;20.10;99.90;;;;;;4963539;28;20484;-87
2022/05/24 07:03:57;;;;;;;3.70;1.83;;;20.00;99.90;;;;;;4960936;29;20433;-85
2022/05/24 07:06:24;;;;;;;4.53;2.10;;;19.90;99.90;;;;;;4957667;28;20853;-85
2022/05/24 07:08:51;;;;;;;4.00;2.13;;;20.00;99.90;;;;;;4957535;28;20453;-86
2022/05/24 07:11:21;;;;;;;4.00;1.20;;;20.10;99.90;;;;;;4957138;28;20449;-86
2022/05/24 07:13:49;;;;;;;4.33;1.03;;;19.80;99.90;;;;;;4957748;28;20852;-85
2022/05/24 07:16:16;;;;;;;3.47;1.00;;;18.20;99.90;;;;;;4959099;28;20539;-86
2022/05/24 07:18:43;;;;;;;7.03;1.20;;;17.30;99.90;;;;;;4959618;28;20499;-85
2022/05/24 07:21:10;;;;;;;4.00;1.30;;;16.80;99.90;;;;;;4960243;28;20501;-86
2022/05/24 07:23:38;;;;;;;3.97;1.20;;;16.40;99.90;;;;;;4958754;28;20461;-84
2022/05/24 07:26:12;;;;;;;3.70;1.10;;;16.20;99.90;;;;;;4961106;28;20456;-85
2022/05/24 07:28:38;;;;;;;3.70;1.07;;;16.20;99.90;;;;;;4958741;28;20465;-85
2022/05/24 07:31:07;;;;;;;3.43;0.80;;;16.00;99.90;;;;;;4958806;28;20512;-85
2022/05/24 07:33:34;;;;;;;5.43;1.20;;;16.10;99.90;;;;;;4961891;28;20485;-85
2022/05/24 07:36:01;;;;;;;4.17;1.40;;;16.20;99.90;;;;;;4964257;28;20495;-85
2022/05/24 07:38:28;;;;;;;3.40;1.20;;;16.20;99.90;;;;;;4962399;28;20477;-85
2022/05/24 07:46:27;;;;;;;4.00;1.30;;;16.30;99.90;;;;;;4958722;28;20922;-84
2022/05/24 07:48:54;;;;;;;8.40;1.43;;;16.40;99.90;;;;;;4958999;28;20476;-86
2022/05/24 07:51:21;;;;;;;3.93;1.13;;;16.50;99.90;;;;;;4962606;28;20540;-84
2022/05/24 07:53:48;;;;;;;3.70;1.23;;;16.60;99.90;;;;;;4971068;28;20489;-84
2022/05/24 07:56:18;;;;;;;5.67;1.50;;;16.70;99.90;;;;;;4968552;28;20437;-85
2022/05/24 07:58:45;;;;;;;3.47;0.97;;;16.70;99.90;;;;;;4961914;28;20517;-86
2022/05/24 08:01:14;;;;;;;5.80;1.30;;;16.90;99.90;;;;;;4957075;28;20551;-86
2022/05/24 08:03:44;;;;;;;2.70;0.70;;;17.00;99.90;;;;;;4957299;28;20782;-86
2022/05/24 08:06:11;;;;;;;8.23;1.40;;;17.10;99.90;;;;;;4958211;28;20927;-85
2022/05/24 08:08:39;;;;;;;3.20;1.10;;;17.30;99.90;;;;;;4956990;28;20449;-86
2022/05/24 08:11:07;;;;;;;2.53;0.80;;;17.40;99.90;;;;;;4971163;28;20520;-86
2022/05/24 08:16:17;;;;;;;6.50;1.30;;;17.60;99.90;;;;;;4976716;28;20479;-83
2022/05/24 08:18:45;;;;;;;3.30;1.07;;;17.70;99.90;;;;;;4973216;28;20448;-86
2022/05/24 08:21:12;;;;;;;3.03;1.13;;;17.80;99.90;;;;;;4956645;28;20543;-85
2022/05/24 08:23:39;;;;;;;3.77;1.20;;;17.90;99.90;;;;;;4959301;28;20531;-86
2022/05/24 08:26:06;;;;;;;3.00;1.00;;;17.90;99.90;;;;;;4974780;28;20453;-85
2022/05/24 08:28:33;;;;;;;3.80;0.90;;;18.00;99.90;;;;;;4976104;28;20447;-86
2022/05/24 08:31:00;;;;;;;4.60;1.47;;;18.00;99.90;;;;;;4959172;28;20453;-86
2022/05/24 08:33:28;;;;;;;2.70;0.80;;;18.10;99.90;;;;;;4960402;28;20492;-86
2022/05/24 08:35:58;;;;;;;3.07;0.73;;;18.40;99.90;;;;;;4964707;28;20836;-86
2022/05/24 08:38:26;;;;;;;3.00;0.83;;;18.50;99.90;;;;;;4966582;28;20477;-87
2022/05/24 08:41:00;;;;;;;4.20;0.60;;;18.30;99.90;;;;;;4962814;28;20464;-86
2022/05/24 08:43:48;;;;;;;3.07;0.97;;;18.30;99.90;;;;;;4960590;28;20437;-86
2022/05/24 08:49:06;;;;;;;2.60;0.80;;;18.50;99.90;;;;;;4960029;29;20528;-87
2022/05/24 08:51:39;;;;;;;2.90;0.97;;;18.40;99.90;;;;;;4959401;28;20468;-87
2022/05/24 08:54:10;;;;;;;3.47;0.90;;;18.60;99.90;;;;;;4960353;28;20469;-86
2022/05/24 08:56:43;;;;;;;2.60;0.70;;;18.90;99.90;;;;;;4959803;28;20559;-87
2022/05/24 08:59:17;;;;;;;2.70;0.80;;;18.80;99.90;;;;;;4965569;28;20434;-87
2022/05/24 09:01:45;;;;;;;4.00;1.10;;;18.80;99.90;;;;;;4962722;28;20972;-87
2022/05/24 09:04:14;;;;;;;2.93;0.80;;;18.70;99.90;;;;;;4959780;28;20507;-87
2022/05/24 09:06:50;;;;;;;2.80;0.87;;;18.70;99.90;;;;;;4959065;28;20471;-86
2022/05/24 09:09:32;;;;;;;3.50;1.20;;;18.90;99.90;;;;;;4958777;29;20447;-86
2022/05/24 09:12:10;;;;;;;3.87;1.17;;;19.00;99.90;;;;;;4959250;28;20464;-87
2022/05/24 09:14:48;;;;;;;2.70;0.90;;;19.00;99.90;;;;;;4961008;28;20484;-87
2022/05/24 09:17:31;;;;;;;2.97;1.13;;;19.00;99.90;;;;;;4960510;28;20479;-87
2022/05/24 09:19:58;;;;;;;2.70;1.00;;;19.10;99.90;;;;;;4964138;28;20513;-88
2022/05/24 09:22:33;;;;;;;5.67;0.90;;;19.50;99.90;;;;;;4961542;28;20543;-86
2022/05/24 09:25:00;;;;;;;3.43;1.00;;;19.60;99.90;;;;;;4961694;28;20445;-87
2022/05/24 09:27:30;;;;;;;3.43;0.87;;;19.70;99.90;;;;;;4959604;28;20473;-86
2022/05/24 09:30:02;;;;;;;2.70;0.70;;;19.50;99.90;;;;;;4962693;28;20472;-86
2022/05/24 09:32:36;;;;;;;3.00;0.87;;;19.30;99.90;;;;;;4963618;28;20449;-87
2022/05/24 09:35:11;;;;;;;3.70;0.77;;;19.40;99.90;;;;;;4960297;28;20441;-86
2022/05/24 09:37:41;;;;;;;3.20;1.10;;;19.50;99.90;;;;;;4961389;28;20495;-86
2022/05/24 09:40:18;;;;;;;3.60;1.03;;;19.60;99.90;;;;;;4958734;28;20525;-86
2022/05/24 09:42:46;;;;;;;3.00;0.90;;;19.70;99.90;;;;;;4960425;28;20519;-85
2022/05/24 09:47:55;;;;;;;3.57;1.13;;;19.10;99.90;;;;;;1458011;26;20508;-87
2022/05/24 09:50:32;;;;;;;2.70;0.90;;;19.30;99.90;;;;;;4965757;29;20552;-86
2022/05/24 09:53:17;;;;;;;2.90;0.70;;;19.30;99.90;;;;;;4965549;28;20548;-86
2022/05/24 09:59:09;;;;;;;5.53;1.80;;;19.10;99.90;;;;;;4956631;28;20445;-87
2022/05/24 10:01:50;;;;;;;2.97;0.80;;;19.10;99.90;;;;;;4942232;29;20466;-87
2022/05/24 10:04:25;;;;;;;4.30;1.00;;;18.90;99.90;;;;;;4942446;29;20973;-87
2022/05/24 10:07:26;;;;;;;3.00;1.00;;;18.90;99.90;;;;;;4966317;28;20516;-88
2022/05/24 10:10:12;;;;;;;2.90;0.80;;;19.00;99.90;;;;;;4967134;28;20455;-87
2022/05/24 10:13:30;;;;;;;5.80;0.70;;;19.20;99.00;;;;;;4961717;28;20479;-88
2022/05/24 10:16:20;;;;;;;3.90;1.13;;;19.40;99.10;;;;;;4949381;28;20576;-86
2022/05/24 10:26:45;;;;;;;3.80;0.87;;;19.90;97.00;;;;;;4967664;28;21023;-87
2022/05/24 10:40:43;;;;;;;2.70;0.70;;;19.70;93.60;;;;;;4962311;29;20799;-87
2022/05/24 10:43:51;;;;;;;2.80;0.80;;;19.80;94.10;;;;;;4923041;29;20451;-86
2022/05/24 10:47:29;;;;;;;;;;;;;;;;;;;;;
2022/05/24 10:57:04;;;;;;;4.00;1.10;;;19.90;94.80;;;;;;4902723;28;20581;-86
2022/05/24 11:13:36;;;;;;;4.30;1.00;;;20.30;94.30;;;;;;4794770;30;20416;-88
2022/05/24 12:09:08;;;;;;;3.00;1.10;;;20.30;94.20;;;;;;4911891;29;20463;-87
2022/05/24 13:05:15;;;;;;;6.40;1.50;;;22.00;84.60;;;;;;4592953;26;20491;-89
2022/05/24 13:21:54;;;;;;;6.97;1.87;;;21.30;86.30;;;;;;4924061;29;20434;-89
2022/05/24 13:25:07;;;;;;;2.60;1.00;;;20.60;89.80;;;;;;4831387;29;20537;-89
2022/05/24 13:28:56;;;;;;;4.17;1.30;;;20.40;90.70;;;;;;4831428;29;20444;-88
2022/05/24 14:07:57;;;;;;;3.40;1.00;;;21.70;86.20;;;;;;4999370;23;20484;-87
2022/05/24 14:11:14;;;;;;;3.60;1.40;;;22.00;84.10;;;;;;4964199;28;20437;-86
2022/05/24 14:23:56;;;;;;;3.90;1.40;;;21.60;80.10;;;;;;4980880;28;20449;-86
2022/05/24 14:26:39;;;;;;;3.07;1.03;;;21.50;84.60;;;;;;4980032;28;20487;-87
2022/05/24 14:29:37;;;;;;;2.80;1.10;;;21.00;89.30;;;;;;4979271;28;20445;-87
2022/05/24 14:32:27;;;;;;;7.90;1.40;;;21.00;90.50;;;;;;4974462;29;20449;-88
2022/05/24 14:44:27;;;;;;;4.50;2.17;;;21.90;88.10;;;;;;4961915;29;20460;-87
2022/05/24 14:47:22;;;;;;;4.97;1.33;;;22.50;86.30;;;;;;4964243;28;20485;-88
2022/05/24 14:50:09;;;;;;;3.30;1.30;;;23.00;84.30;;;;;;4963648;28;20528;-88
2022/05/24 14:56:42;;;;;;;3.33;1.13;;;24.10;80.70;;;;;;4894916;28;20470;-88
2022/05/24 14:59:25;;;;;;;3.73;1.80;;;23.00;81.50;;;;;;4963380;29;20464;-87
2022/05/24 15:02:08;;;;;;;3.97;1.63;;;22.60;84.70;;;;;;4968840;28;20451;-88
2022/05/24 15:04:52;;;;;;;5.40;1.30;;;22.20;86.80;;;;;;4974793;28;20453;-88
2022/05/24 15:20:38;;;;;;;8.10;1.37;;;23.30;84.20;;;;;;4975927;28;20433;-87
2022/05/24 15:23:46;;;;;;;3.97;1.47;;;22.60;86.10;;;;;;4972201;29;20469;-88
2022/05/24 15:29:18;;;;;;;3.70;1.30;;;22.30;87.10;;;;;;4965814;28;20434;-89
2022/05/24 15:32:03;;;;;;;3.30;1.50;;;21.90;86.20;;;;;;4965699;28;20456;-88
2022/05/24 15:41:48;;;;;;;4.00;1.63;;;21.70;87.90;;;;;;4907081;29;20449;-87
2022/05/24 15:50:52;;;;;;;3.10;1.23;;;21.80;86.70;;;;;;4959634;28;20444;-88
2022/05/24 15:57:21;;;;;;;4.80;2.70;;;21.20;85.40;;;;;;4908665;28;20477;-87
2022/05/24 16:00:29;;;;;;;3.40;1.30;;;21.10;86.90;;;;;;4962078;29;20460;-88
2022/05/24 16:17:45;;;;;;;3.57;1.70;;;21.00;86.30;;;;;;4944623;28;20461;-88
2022/05/24 17:12:32;;;;;;;5.00;1.80;;;20.50;90.40;;;;;;4825735;29;20471;-88
2022/05/24 17:16:04;;;;;;;5.00;1.50;;;20.50;90.30;;;;;;4943777;29;20505;-88
2022/05/24 17:35:53;;;;;;;3.10;1.03;;;20.70;90.00;;;;;;4931703;28;20493;-90
2022/05/24 17:38:44;;;;;;;3.23;1.30;;;20.80;88.70;;;;;;4984996;28;20515;-89
2022/05/24 17:48:39;;;;;;;;;;;;;;;;;;;;;
2022/05/24 18:02:23;;;;;;;5.10;1.37;;;20.30;89.30;;;;;;4917161;23;20500;-88
2022/05/24 18:11:25;;;;;;;3.57;1.20;;;20.30;90.00;;;;;;4962335;28;20465;-88
2022/05/24 18:13:59;;;;;;;2.90;0.70;;;20.20;89.90;;;;;;4965845;28;20449;-88
2022/05/24 18:20:45;;;;;;;3.00;1.00;;;20.10;90.00;;;;;;4815425;27;10285630;-88
2022/05/24 18:35:56;;;;;;;3.47;1.07;;;19.70;90.60;;;;;;5165896;27;20507;-88
2022/05/24 18:38:29;;;;;;;3.60;1.63;;;19.70;90.40;;;;;;5166655;27;20465;-89
2022/05/24 18:41:39;;;;;;;3.40;1.10;;;19.70;90.40;;;;;;5162072;27;20525;-88
2022/05/24 18:44:30;;;;;;;3.10;1.30;;;19.90;90.50;;;;;;5161564;27;20452;-89
2022/05/24 18:47:18;;;;;;;3.30;1.03;;;19.90;90.10;;;;;;5151074;27;20546;-88
2022/05/24 18:50:29;;;;;;;2.83;1.20;;;20.00;90.10;;;;;;5163730;27;20448;-89
2022/05/24 18:53:34;;;;;;;4.73;2.00;;;19.80;90.40;;;;;;5160169;27;20464;-88
2022/05/24 18:56:08;;;;;;;3.43;1.30;;;19.90;90.70;;;;;;5172102;27;20474;-88
2022/05/24 18:58:43;;;;;;;2.70;0.90;;;19.90;90.50;;;;;;5172926;27;20445;-88
2022/05/24 19:01:12;;;;;;;4.53;1.57;;;19.80;90.70;;;;;;5171742;27;20476;-87
2022/05/24 19:03:40;;;;;;;3.10;0.87;;;19.80;90.70;;;;;;5170990;27;20450;-88
2022/05/24 19:06:11;;;;;;;3.07;1.07;;;19.70;90.90;;;;;;5168050;27;20424;-88
2022/05/24 19:08:39;;;;;;;3.70;1.60;;;19.60;91.00;;;;;;5166262;27;20449;-87
2022/05/24 19:11:11;;;;;;;3.27;1.30;;;19.70;91.00;;;;;;5160437;27;20468;-88
2022/05/24 19:13:38;;;;;;;3.20;1.70;;;19.80;90.90;;;;;;5157257;27;20439;-88
2022/05/24 19:16:10;;;;;;;6.93;1.70;;;19.70;91.00;;;;;;5158119;27;20528;-88
2022/05/24 19:18:41;;;;;;;4.63;1.30;;;19.70;91.30;;;;;;5162346;27;20462;-87
2022/05/24 19:21:10;;;;;;;4.83;1.80;;;19.50;91.40;;;;;;5159816;27;20447;-87
2022/05/24 19:23:37;;;;;;;4.70;1.40;;;19.50;92.00;;;;;;5157415;27;20636;-87
2022/05/24 19:26:06;;;;;;;3.13;1.70;;;19.60;91.80;;;;;;5162639;27;20464;-88
2022/05/24 19:28:33;;;;;;;4.40;1.80;;;19.50;92.30;;;;;;5167292;27;21047;-88
2022/05/24 19:31:04;;;;;;;4.10;1.53;;;19.50;92.30;;;;;;5153870;27;20469;-88
2022/05/24 19:33:35;;;;;;;4.27;2.57;;;19.50;92.40;;;;;;5148010;27;20449;-88
2022/05/24 19:36:22;;;;;;;4.13;2.00;;;19.40;92.80;;;;;;5143022;27;20418;-88
2022/05/24 19:41:56;;;;;;;2.80;1.13;;;19.20;92.90;;;;;;5141837;27;20446;-89
2022/05/24 19:44:28;;;;;;;4.10;1.37;;;19.10;93.00;;;;;;5143840;27;20425;-89
2022/05/24 19:46:56;;;;;;;3.80;1.90;;;19.20;92.90;;;;;;5143575;27;20459;-89
2022/05/24 19:49:26;;;;;;;5.67;1.80;;;19.30;92.70;;;;;;5142698;27;20449;-87
2022/05/24 19:51:53;;;;;;;4.30;2.77;;;19.20;92.90;;;;;;5142255;27;20548;-89
2022/05/24 19:54:21;;;;;;;4.70;1.77;;;19.10;92.90;;;;;;5141615;27;20981;-88
2022/05/24 19:56:55;;;;;;;3.40;1.60;;;19.10;93.00;;;;;;5140648;27;20871;-88
2022/05/24 19:59:22;;;;;;;3.97;1.70;;;19.10;93.00;;;;;;5141518;27;20475;-89
2022/05/24 20:01:49;;;;;;;5.53;1.30;;;19.00;93.00;;;;;;5140389;27;20453;-88
2022/05/24 20:04:17;;;;;;;2.57;0.70;;;19.20;92.60;;;;;;5142664;27;20447;-88
2022/05/24 20:06:44;;;;;;;4.23;1.40;;;18.90;92.60;;;;;;5147318;27;20433;-87
2022/05/24 20:09:12;;;;;;;6.00;1.07;;;18.70;93.10;;;;;;5143929;27;20437;-88
2022/05/24 20:11:40;;;;;;;3.07;1.27;;;18.70;93.40;;;;;;5142573;27;20476;-89
2022/05/24 20:14:09;;;;;;;3.10;1.13;;;18.70;93.50;;;;;;5142636;27;20439;-88
2022/05/24 20:16:36;;;;;;;4.93;2.80;;;18.70;93.40;;;;;;5142358;27;20477;-88
2022/05/24 20:19:04;;;;;;;7.50;1.60;;;18.60;93.60;;;;;;5142947;27;20484;-86
2022/05/24 20:21:34;;;;;;;5.53;1.67;;;18.60;93.80;;;;;;5159803;27;20477;-87
2022/05/24 20:24:01;;;;;;;5.37;3.47;;;18.60;93.80;;;;;;5155936;27;20954;-89
2022/05/24 20:26:28;;;;;;;5.20;1.63;;;18.60;93.70;;;;;;5142387;27;20452;-89
2022/05/24 20:28:55;;;;;;;4.67;2.53;;;18.50;93.50;;;;;;5142482;27;20448;-89
2022/05/24 20:31:26;;;;;;;4.57;1.83;;;18.60;93.50;;;;;;5140995;27;20473;-87
2022/05/24 20:33:53;;;;;;;3.40;1.50;;;18.60;93.40;;;;;;5142300;27;20465;-88
2022/05/24 20:36:23;;;;;;;8.23;1.20;;;18.80;93.40;;;;;;5142635;27;20474;-88
2022/05/24 20:38:56;;;;;;;3.43;1.20;;;18.70;93.40;;;;;;5143824;27;20480;-87
2022/05/24 20:41:29;;;;;;;4.03;1.67;;;18.80;93.50;;;;;;5147168;27;20498;-87
2022/05/24 20:43:58;;;;;;;4.40;1.77;;;18.60;94.00;;;;;;5145482;27;20421;-88
2022/05/24 20:49:56;;;;;;;5.10;2.50;;;18.50;94.50;;;;;;5131072;27;20453;-88
2022/05/24 20:52:23;;;;;;;2.87;1.30;;;18.50;94.70;;;;;;5150035;27;20475;-87
2022/05/24 20:54:49;;;;;;;5.90;1.20;;;18.50;94.80;;;;;;5145545;27;20941;-89
2022/05/24 20:57:19;;;;;;;2.97;1.00;;;18.60;94.80;;;;;;5141568;27;20984;-88
2022/05/24 20:59:47;;;;;;;3.33;1.23;;;18.60;95.00;;;;;;5146278;27;20485;-88
2022/05/24 21:02:18;;;;;;;3.60;1.10;;;18.40;95.20;;;;;;5144266;27;20519;-89
2022/05/24 21:04:55;;;;;;;4.30;1.30;;;18.40;95.30;;;;;;5139167;27;20418;-89
2022/05/24 21:07:26;;;;;;;3.20;1.23;;;18.30;95.70;;;;;;5140971;27;20459;-88
2022/05/24 21:10:03;;;;;;;6.30;2.70;;;18.30;95.90;;;;;;5150479;27;20457;-89
2022/05/24 21:12:31;;;;;;;6.20;2.17;;;18.20;96.30;;;;;;5159018;27;20471;-87
2022/05/24 21:14:58;;;;;;;4.87;2.00;;;18.20;96.30;;;;;;5154128;27;20986;-87
2022/05/24 21:17:27;;;;;;;3.87;1.43;;;18.20;96.40;;;;;;5142301;27;20452;-87
2022/05/24 21:19:55;;;;;;;3.63;0.97;;;18.30;96.30;;;;;;5144629;27;20536;-87
2022/05/24 21:22:24;;;;;;;3.07;1.27;;;18.30;96.10;;;;;;5159376;27;20445;-87
2022/05/24 21:28:01;;;;;;;3.40;1.23;;;18.20;96.20;;;;;;5147143;27;20451;-89
2022/05/24 21:30:25;;;;;;;3.20;0.90;;;18.00;96.80;;;;;;5148919;27;20454;-87
2022/05/24 21:32:59;;;;;;;3.93;1.20;;;18.10;97.00;;;;;;5149429;27;20481;-89
2022/05/24 21:35:27;;;;;;;3.47;1.10;;;18.00;96.90;;;;;;5148673;27;20474;-89
2022/05/24 21:37:59;;;;;;;2.90;1.20;;;17.90;97.40;;;;;;5146260;27;20467;-88
2022/05/24 21:40:28;;;;;;;3.90;1.27;;;17.90;97.90;;;;;;5144905;27;20566;-87
2022/05/24 21:42:57;;;;;;;6.10;1.50;;;17.90;97.80;;;;;;5144266;27;20538;-89
2022/05/24 21:45:25;;;;;;;3.47;1.23;;;17.90;98.10;;;;;;5142154;27;20488;-89
2022/05/24 21:47:54;;;;;;;3.47;1.30;;;17.90;98.30;;;;;;5142345;27;20438;-89
2022/05/24 21:50:22;;;;;;;5.67;1.10;;;18.10;98.60;;;;;;5141503;27;20497;-88
2022/05/24 21:52:49;;;;;;;6.70;2.47;;;17.90;98.50;;;;;;5143691;27;20486;-87
2022/05/24 21:55:17;;;;;;;4.37;1.63;;;17.90;98.60;;;;;;5145658;27;20451;-90
2022/05/24 21:57:45;;;;;;;4.60;1.50;;;17.80;98.70;;;;;;5152852;27;20429;-87
2022/05/24 22:00:42;;;;;;;6.67;1.33;;;17.80;98.80;;;;;;5158187;27;20477;-86
2022/05/24 22:03:09;;;;;;;3.63;1.53;;;17.80;99.40;;;;;;5154441;27;20435;-89
2022/05/24 22:05:36;;;;;;;3.00;1.10;;;17.80;99.70;;;;;;5144252;27;20464;-88
2022/05/24 22:08:04;;;;;;;3.10;1.00;;;17.70;99.70;;;;;;5144107;27;20536;-88
2022/05/24 22:10:34;;;;;;;2.80;1.00;;;17.70;99.70;;;;;;5150679;27;20451;-89
2022/05/24 22:13:02;;;;;;;4.53;1.83;;;17.60;99.60;;;;;;5148957;27;20451;-88
2022/05/24 22:15:32;;;;;;;3.53;1.43;;;17.60;99.90;;;;;;5145388;27;20439;-87
2022/05/24 22:18:01;;;;;;;3.13;1.50;;;17.70;99.90;;;;;;5142759;28;20460;-88
2022/05/24 22:20:28;;;;;;;3.07;1.10;;;17.60;99.80;;;;;;5143377;28;20572;-89
2022/05/24 22:22:59;;;;;;;3.20;1.30;;;17.60;99.90;;;;;;5149702;28;20877;-87
2022/05/24 22:25:26;;;;;;;5.40;1.13;;;17.70;99.90;;;;;;5147466;28;20498;-89
2022/05/24 22:27:54;;;;;;;3.87;1.27;;;17.70;99.90;;;;;;5141228;28;20456;-88
2022/05/24 22:30:22;;;;;;;2.80;1.13;;;17.70;99.90;;;;;;5140303;28;20820;-88
2022/05/24 22:32:51;;;;;;;4.30;1.00;;;17.70;99.90;;;;;;5139935;27;20435;-88
2022/05/24 22:35:19;;;;;;;2.90;1.40;;;17.80;99.90;;;;;;5140990;28;20453;-88
2022/05/24 22:37:46;;;;;;;3.80;1.30;;;17.70;99.90;;;;;;5141970;28;20489;-88